Time;durP1;ratioP1;P1;durP2;ratioP2;P2;SDS_P1;SDS_P2;PMS_P1;PMS_P2;Temp;Humidity;BMP_temperature;BMP_pressure;BME280_temperature;BME280_humidity;BME280_pressure;Samples;Min_cycle;Max_cycle;Signal;HPM_P1;HPM_P2
2023/12/02 00:00:55;;;;;;;12.97;11.73;;;-0.30;99.90;;;;;;5026691;28;20498;-77
2023/12/02 00:03:21;;;;;;;12.05;10.95;;;-0.40;99.90;;;;;;5034495;28;20921;-76
2023/12/02 00:05:50;;;;;;;11.93;10.73;;;-0.40;99.90;;;;;;5039452;28;20469;-76
2023/12/02 00:08:17;;;;;;;11.10;10.00;;;-0.30;99.90;;;;;;5027946;28;20593;-76
2023/12/02 00:10:46;;;;;;;13.10;11.80;;;-0.40;99.90;;;;;;5034119;28;20414;-76
2023/12/02 00:13:12;;;;;;;11.32;10.13;;;-0.40;99.50;;;;;;5032854;28;21028;-76
2023/12/02 00:15:39;;;;;;;12.55;10.88;;;-0.40;99.30;;;;;;5029450;28;20433;-76
2023/12/02 00:18:06;;;;;;;12.80;11.50;;;-0.40;99.40;;;;;;5031523;28;20425;-77
2023/12/02 00:20:33;;;;;;;11.43;10.20;;;-0.40;99.30;;;;;;5028424;28;21019;-77
2023/12/02 00:23:00;;;;;;;11.95;10.65;;;-0.40;99.70;;;;;;5035202;28;20524;-76
2023/12/02 00:25:26;;;;;;;11.70;10.13;;;-0.40;99.90;;;;;;5032955;28;20415;-76
2023/12/02 00:27:54;;;;;;;12.40;10.27;;;-0.40;99.60;;;;;;5027865;28;20422;-77
2023/12/02 00:30:21;;;;;;;11.60;10.40;;;-0.40;99.40;;;;;;5032480;28;20429;-76
2023/12/02 00:32:48;;;;;;;11.40;10.30;;;-0.40;99.40;;;;;;5032763;28;20522;-76
2023/12/02 00:35:15;;;;;;;11.70;10.50;;;-0.40;99.70;;;;;;5030378;28;20445;-76
2023/12/02 00:37:41;;;;;;;12.20;10.80;;;-0.40;99.90;;;;;;5034443;28;20431;-76
2023/12/02 00:40:09;;;;;;;11.55;10.38;;;-0.40;99.90;;;;;;5033387;28;20504;-76
2023/12/02 00:42:36;;;;;;;10.93;9.88;;;-0.40;99.90;;;;;;5037509;28;20537;-77
2023/12/02 00:45:05;;;;;;;11.00;9.90;;;-0.40;99.90;;;;;;5028280;28;20422;-77
2023/12/02 00:47:32;;;;;;;11.35;10.25;;;-0.40;99.90;;;;;;5045996;28;20442;-77
2023/12/02 00:49:59;;;;;;;12.00;10.80;;;-0.40;99.50;;;;;;5040618;28;20781;-76
2023/12/02 00:52:25;;;;;;;11.63;10.48;;;-0.40;98.90;;;;;;5031931;28;20440;-76
2023/12/02 00:54:52;;;;;;;9.85;8.95;;;-0.40;99.00;;;;;;5035961;28;20433;-77
2023/12/02 00:57:19;;;;;;;10.40;9.40;;;-0.50;99.10;;;;;;5026565;28;20430;-77
2023/12/02 00:59:45;;;;;;;10.73;9.63;;;-0.40;99.40;;;;;;5025719;28;20414;-76
2023/12/02 01:02:15;;;;;;;10.50;9.50;;;-0.50;99.40;;;;;;5029416;28;20431;-76
2023/12/02 01:04:42;;;;;;;10.50;9.40;;;-0.50;99.50;;;;;;5030951;28;20418;-76
2023/12/02 01:07:09;;;;;;;10.47;9.47;;;-0.50;99.50;;;;;;5034110;28;20419;-77
2023/12/02 01:09:35;;;;;;;13.10;9.63;;;-0.50;99.40;;;;;;5027160;28;20577;-77
2023/12/02 01:12:02;;;;;;;10.40;9.30;;;-0.50;99.10;;;;;;5033397;28;20496;-76
2023/12/02 01:14:29;;;;;;;11.43;10.23;;;-0.50;98.90;;;;;;5028531;28;20713;-77
2023/12/02 01:16:56;;;;;;;9.73;8.82;;;-0.50;98.70;;;;;;5034461;28;20876;-77
2023/12/02 01:19:24;;;;;;;11.07;9.98;;;-0.60;99.50;;;;;;5041312;28;20425;-77
2023/12/02 01:21:50;;;;;;;11.00;9.90;;;-0.50;99.40;;;;;;5035296;28;20423;-77
2023/12/02 01:24:17;;;;;;;10.90;9.52;;;-0.60;99.20;;;;;;5033101;28;20446;-76
2023/12/02 01:26:44;;;;;;;10.70;9.60;;;-0.60;99.50;;;;;;5042218;28;20427;-77
2023/12/02 01:29:11;;;;;;;10.90;9.70;;;-0.60;99.70;;;;;;5025543;28;20441;-76
2023/12/02 01:31:37;;;;;;;10.50;9.40;;;-0.60;99.90;;;;;;5036851;28;20441;-76
2023/12/02 01:34:04;;;;;;;10.73;9.63;;;-0.60;99.90;;;;;;5030579;28;20427;-76
2023/12/02 01:36:32;;;;;;;11.48;10.38;;;-0.50;99.50;;;;;;5025892;28;20417;-76
2023/12/02 01:38:59;;;;;;;10.50;9.50;;;-0.60;99.50;;;;;;5042288;28;20419;-75
2023/12/02 01:41:26;;;;;;;10.95;9.85;;;-0.50;99.80;;;;;;5034383;28;20445;-75
2023/12/02 01:43:53;;;;;;;11.07;9.98;;;-0.50;99.80;;;;;;5039675;28;20431;-75
2023/12/02 01:46:20;;;;;;;11.20;10.10;;;-0.50;99.80;;;;;;5034104;28;20436;-77
2023/12/02 01:48:47;;;;;;;11.48;10.27;;;-0.50;99.80;;;;;;5034355;28;20410;-77
2023/12/02 01:51:14;;;;;;;10.55;9.45;;;-0.50;99.60;;;;;;5032052;28;20429;-76
2023/12/02 01:53:42;;;;;;;10.73;9.68;;;-0.60;99.50;;;;;;5039374;28;20435;-76
2023/12/02 01:56:10;;;;;;;11.00;9.90;;;-0.60;99.70;;;;;;5053787;28;20463;-76
2023/12/02 01:58:37;;;;;;;10.00;9.10;;;-0.60;99.70;;;;;;5037902;28;20488;-77
2023/12/02 02:01:04;;;;;;;11.50;10.30;;;-0.60;99.20;;;;;;5040019;28;20411;-76
2023/12/02 02:03:32;;;;;;;10.60;9.60;;;-0.60;99.10;;;;;;5045998;28;20487;-76
2023/12/02 02:05:59;;;;;;;10.38;9.38;;;-0.60;99.10;;;;;;5041718;28;20446;-76
2023/12/02 02:08:26;;;;;;;11.10;10.00;;;-0.60;99.10;;;;;;5036031;28;20426;-75
2023/12/02 02:10:57;;;;;;;10.60;9.50;;;-0.60;99.60;;;;;;5034435;28;20436;-76
2023/12/02 02:13:24;;;;;;;11.13;10.02;;;-0.60;99.90;;;;;;5039564;28;20439;-76
2023/12/02 02:15:50;;;;;;;10.80;9.70;;;-0.60;99.70;;;;;;5036754;28;20417;-76
2023/12/02 02:18:17;;;;;;;10.68;9.57;;;-0.60;99.80;;;;;;5047855;28;20447;-76
2023/12/02 02:20:50;;;;;;;11.90;9.73;;;-0.60;99.90;;;;;;5039275;28;20433;-76
2023/12/02 02:23:18;;;;;;;10.43;9.32;;;-0.60;99.90;;;;;;5033112;28;20482;-76
2023/12/02 02:25:45;;;;;;;10.85;9.57;;;-0.60;99.90;;;;;;5039237;28;20413;-77
2023/12/02 02:28:12;;;;;;;10.68;9.57;;;-0.60;99.90;;;;;;5041696;28;20892;-76
2023/12/02 02:30:38;;;;;;;9.17;8.27;;;-0.60;99.90;;;;;;5035235;28;20423;-76
2023/12/02 02:33:05;;;;;;;10.30;9.20;;;-0.60;99.80;;;;;;5041571;28;20440;-75
2023/12/02 02:35:32;;;;;;;10.80;9.70;;;-0.60;99.80;;;;;;5034712;28;20551;-76
2023/12/02 02:37:59;;;;;;;9.63;8.63;;;-0.60;99.60;;;;;;5034207;28;20422;-75
2023/12/02 02:40:27;;;;;;;9.50;8.57;;;-0.60;99.40;;;;;;5037197;28;20409;-78
2023/12/02 02:42:54;;;;;;;10.25;9.25;;;-0.60;99.90;;;;;;5046761;28;20441;-77
2023/12/02 02:45:21;;;;;;;9.30;8.40;;;-0.60;99.90;;;;;;5039695;28;20911;-76
2023/12/02 02:47:47;;;;;;;10.23;8.90;;;-0.60;99.90;;;;;;5041077;28;20517;-76
2023/12/02 02:50:14;;;;;;;9.60;8.60;;;-0.60;99.90;;;;;;5041696;28;20427;-76
2023/12/02 02:52:41;;;;;;;9.87;8.97;;;-0.60;99.90;;;;;;5032430;28;20468;-76
2023/12/02 02:55:08;;;;;;;10.30;9.30;;;-0.60;99.90;;;;;;5036286;28;20426;-76
2023/12/02 02:57:36;;;;;;;10.05;9.05;;;-0.60;99.90;;;;;;5034086;28;20539;-76
2023/12/02 03:00:08;;;;;;;9.47;8.50;;;-0.60;99.90;;;;;;5044880;28;20535;-77
2023/12/02 03:02:35;;;;;;;9.57;8.67;;;-0.60;99.90;;;;;;5044144;28;20606;-75
2023/12/02 03:05:02;;;;;;;10.40;9.32;;;-0.60;99.90;;;;;;5031464;28;20442;-76
2023/12/02 03:07:29;;;;;;;10.20;9.20;;;-0.50;99.90;;;;;;5036672;28;20409;-76
2023/12/02 03:09:57;;;;;;;11.15;9.95;;;-0.50;99.90;;;;;;5030557;28;20425;-76
2023/12/02 03:12:24;;;;;;;9.82;8.82;;;-0.50;99.90;;;;;;5038763;28;20413;-76
2023/12/02 03:14:52;;;;;;;10.50;9.50;;;-0.50;99.90;;;;;;5045785;28;20417;-76
2023/12/02 03:17:19;;;;;;;9.85;8.80;;;-0.50;99.90;;;;;;5047815;28;20440;-76
2023/12/02 03:19:47;;;;;;;9.70;8.80;;;-0.50;99.90;;;;;;5035925;28;20419;-76
2023/12/02 03:22:14;;;;;;;9.75;8.75;;;-0.40;99.90;;;;;;5035643;28;20794;-76
2023/12/02 03:24:41;;;;;;;10.73;9.73;;;-0.40;99.90;;;;;;5031761;28;20760;-76
2023/12/02 03:27:08;;;;;;;10.10;9.07;;;-0.40;99.90;;;;;;5043135;28;20442;-76
2023/12/02 03:29:34;;;;;;;10.98;9.88;;;-0.40;99.90;;;;;;5034426;28;20421;-77
2023/12/02 03:32:03;;;;;;;10.32;8.90;;;-0.40;99.90;;;;;;5033997;28;20430;-76
2023/12/02 03:34:29;;;;;;;10.18;9.18;;;-0.40;99.90;;;;;;5036958;28;20436;-76
2023/12/02 03:36:56;;;;;;;10.27;9.18;;;-0.40;99.90;;;;;;5033178;28;20413;-76
2023/12/02 03:39:23;;;;;;;11.35;10.15;;;-0.40;99.90;;;;;;5041321;28;21268;-75
2023/12/02 03:41:50;;;;;;;10.37;9.27;;;-0.40;99.90;;;;;;5044864;28;20471;-76
2023/12/02 03:44:16;;;;;;;11.18;10.07;;;-0.40;99.90;;;;;;5050148;28;20409;-76
2023/12/02 03:46:44;;;;;;;10.80;9.48;;;-0.30;99.90;;;;;;5051068;28;20935;-76
2023/12/02 03:49:12;;;;;;;11.23;9.80;;;-0.40;99.90;;;;;;5038553;28;20427;-76
2023/12/02 03:51:39;;;;;;;11.98;10.68;;;-0.40;99.90;;;;;;5029738;28;20900;-76
2023/12/02 03:54:06;;;;;;;11.00;9.90;;;-0.30;99.90;;;;;;5029347;28;20434;-76
2023/12/02 03:56:32;;;;;;;11.68;10.55;;;-0.30;99.90;;;;;;5031276;28;20473;-76
2023/12/02 03:58:59;;;;;;;11.20;10.00;;;-0.30;99.90;;;;;;5033041;28;20422;-75
2023/12/02 04:01:26;;;;;;;11.10;9.90;;;-0.30;99.90;;;;;;5039673;28;20456;-78
2023/12/02 04:03:53;;;;;;;10.68;9.57;;;-0.30;99.90;;;;;;5035419;28;20436;-78
2023/12/02 04:06:21;;;;;;;10.40;9.38;;;-0.30;99.90;;;;;;5035567;28;20427;-78
2023/12/02 04:08:47;;;;;;;10.93;9.70;;;-0.30;99.90;;;;;;5036207;28;20416;-78
2023/12/02 04:11:17;;;;;;;10.88;9.77;;;-0.30;99.90;;;;;;5036988;28;20434;-77
2023/12/02 04:13:43;;;;;;;10.90;9.90;;;-0.20;99.90;;;;;;5029894;28;21152;-75
2023/12/02 04:16:11;;;;;;;10.57;9.48;;;-0.30;99.90;;;;;;5032710;28;20516;-76
2023/12/02 04:18:38;;;;;;;11.60;10.50;;;-0.30;99.90;;;;;;5038041;28;20789;-77
2023/12/02 04:21:08;;;;;;;11.38;10.25;;;-0.30;99.90;;;;;;5039684;28;20514;-77
2023/12/02 04:23:36;;;;;;;10.30;9.30;;;-0.20;99.90;;;;;;5035396;28;21039;-77
2023/12/02 04:26:03;;;;;;;10.60;9.57;;;-0.30;99.90;;;;;;5038897;28;21047;-78
2023/12/02 04:28:29;;;;;;;11.05;9.95;;;-0.30;99.90;;;;;;5033445;28;20413;-77
2023/12/02 04:30:57;;;;;;;11.20;10.10;;;-0.30;99.90;;;;;;5027743;28;20423;-77
2023/12/02 04:33:23;;;;;;;10.35;9.35;;;-0.20;99.90;;;;;;5035568;28;20452;-77
2023/12/02 04:35:50;;;;;;;11.68;10.48;;;-0.20;99.90;;;;;;5030632;28;20868;-78
2023/12/02 04:38:17;;;;;;;10.75;9.70;;;-0.20;99.90;;;;;;5036282;28;20409;-78
2023/12/02 04:40:46;;;;;;;10.68;9.57;;;-0.20;99.90;;;;;;5037665;28;20421;-77
2023/12/02 04:43:12;;;;;;;10.75;9.65;;;-0.20;99.90;;;;;;5031564;28;20431;-75
2023/12/02 04:45:39;;;;;;;10.63;9.63;;;-0.20;99.90;;;;;;5030105;28;20434;-78
2023/12/02 04:48:06;;;;;;;10.15;9.10;;;-0.20;99.90;;;;;;5032797;28;20894;-77
2023/12/02 04:50:32;;;;;;;10.55;9.45;;;-0.20;99.90;;;;;;5031169;28;20446;-78
2023/12/02 04:52:59;;;;;;;10.77;9.77;;;-0.20;99.90;;;;;;5034150;28;20423;-77
2023/12/02 04:55:26;;;;;;;10.20;9.20;;;-0.20;99.90;;;;;;5031854;28;20419;-77
2023/12/02 04:57:54;;;;;;;10.50;9.40;;;-0.20;99.90;;;;;;5027907;28;20812;-75
2023/12/02 05:00:21;;;;;;;9.68;8.77;;;-0.20;99.90;;;;;;5036514;28;20486;-76
2023/12/02 05:02:48;;;;;;;10.00;9.00;;;-0.20;99.90;;;;;;5041980;28;20433;-77
2023/12/02 05:05:15;;;;;;;9.65;8.65;;;-0.20;99.90;;;;;;5034909;28;20514;-77
2023/12/02 05:07:42;;;;;;;11.65;9.35;;;-0.20;99.90;;;;;;5034601;28;20990;-76
2023/12/02 05:10:10;;;;;;;10.18;9.27;;;-0.20;99.90;;;;;;5029982;28;20418;-76
2023/12/02 05:12:37;;;;;;;9.98;8.98;;;-0.20;99.90;;;;;;5028364;28;20424;-77
2023/12/02 05:15:06;;;;;;;9.35;8.45;;;-0.20;99.90;;;;;;5035754;28;20434;-76
2023/12/02 05:17:33;;;;;;;9.50;8.50;;;-0.20;99.70;;;;;;5042142;28;21037;-76
2023/12/02 05:20:00;;;;;;;9.32;8.43;;;-0.20;99.40;;;;;;5032683;28;20413;-76
2023/12/02 05:22:26;;;;;;;9.50;8.60;;;-0.20;99.90;;;;;;5033280;28;20520;-76
2023/12/02 05:24:53;;;;;;;9.23;8.32;;;-0.20;99.90;;;;;;5031543;28;20413;-76
2023/12/02 05:27:20;;;;;;;9.70;8.70;;;-0.20;99.90;;;;;;5052840;28;20432;-76
2023/12/02 05:29:46;;;;;;;9.73;8.73;;;-0.20;99.90;;;;;;5046169;28;20429;-76
2023/12/02 05:32:15;;;;;;;9.30;8.18;;;-0.20;99.60;;;;;;5042935;28;20439;-76
2023/12/02 05:34:41;;;;;;;9.10;8.20;;;-0.20;99.90;;;;;;5038754;28;20607;-76
2023/12/02 05:37:08;;;;;;;9.80;8.80;;;-0.20;99.70;;;;;;5035143;28;20422;-76
2023/12/02 05:39:35;;;;;;;9.88;8.88;;;-0.20;99.60;;;;;;5048443;28;20756;-76
2023/12/02 05:42:02;;;;;;;9.68;8.68;;;-0.20;99.90;;;;;;5053666;28;20426;-76
2023/12/02 05:44:29;;;;;;;9.77;8.87;;;-0.20;99.90;;;;;;5039061;28;20435;-76
2023/12/02 05:46:55;;;;;;;10.30;9.30;;;-0.20;99.90;;;;;;5036982;28;20433;-76
2023/12/02 05:49:23;;;;;;;10.20;9.20;;;-0.20;99.90;;;;;;5037215;28;20436;-76
2023/12/02 05:51:50;;;;;;;9.95;8.95;;;-0.20;99.90;;;;;;5032555;28;20865;-76
2023/12/02 05:54:17;;;;;;;9.95;8.95;;;-0.20;99.90;;;;;;5038031;28;20433;-76
2023/12/02 05:56:44;;;;;;;11.10;9.48;;;-0.20;99.90;;;;;;5033523;28;20805;-76
2023/12/02 05:59:11;;;;;;;9.05;8.20;;;-0.20;99.90;;;;;;5037003;28;20428;-76
2023/12/02 06:01:37;;;;;;;9.40;8.50;;;-0.20;99.90;;;;;;5042335;28;21080;-76
2023/12/02 06:04:04;;;;;;;8.98;8.18;;;-0.20;99.90;;;;;;5040601;28;20444;-76
2023/12/02 06:06:32;;;;;;;10.13;9.13;;;-0.20;99.90;;;;;;5040623;28;20430;-76
2023/12/02 06:09:00;;;;;;;10.30;9.30;;;-0.20;99.90;;;;;;5037094;28;20427;-76
2023/12/02 06:11:27;;;;;;;9.77;8.77;;;-0.20;99.90;;;;;;5039766;28;20883;-76
2023/12/02 06:13:54;;;;;;;10.80;9.70;;;-0.20;99.90;;;;;;5034213;28;20441;-76
2023/12/02 06:16:20;;;;;;;10.48;9.45;;;-0.20;99.90;;;;;;5036140;28;20512;-76
2023/12/02 06:18:47;;;;;;;10.43;9.32;;;-0.20;99.90;;;;;;5044437;28;20775;-76
2023/12/02 06:21:14;;;;;;;10.82;9.73;;;-0.20;99.90;;;;;;5036939;28;20431;-76
2023/12/02 06:23:42;;;;;;;10.77;9.68;;;-0.20;99.90;;;;;;5036225;28;20417;-76
2023/12/02 06:26:09;;;;;;;11.00;9.90;;;-0.20;99.90;;;;;;5027547;28;20495;-76
2023/12/02 06:28:35;;;;;;;10.15;9.15;;;-0.20;99.90;;;;;;5036671;28;20783;-76
2023/12/02 06:31:02;;;;;;;10.70;9.60;;;-0.20;99.90;;;;;;5033959;28;20536;-76
2023/12/02 06:33:29;;;;;;;10.20;8.77;;;-0.20;99.90;;;;;;5046118;28;20437;-76
2023/12/02 06:35:55;;;;;;;10.07;9.07;;;-0.20;99.90;;;;;;5031362;28;20908;-77
2023/12/02 06:38:22;;;;;;;10.15;9.05;;;-0.20;99.90;;;;;;5032737;28;20462;-76
2023/12/02 06:40:50;;;;;;;11.00;9.90;;;-0.20;99.90;;;;;;5038078;28;20794;-75
2023/12/02 06:43:17;;;;;;;10.15;9.15;;;-0.20;99.90;;;;;;5035914;28;20433;-75
2023/12/02 06:45:44;;;;;;;10.90;9.80;;;-0.20;99.90;;;;;;5041090;28;20429;-75
2023/12/02 06:48:10;;;;;;;11.40;10.30;;;-0.20;99.50;;;;;;5040513;28;20464;-75
2023/12/02 06:50:37;;;;;;;12.40;11.10;;;-0.20;99.30;;;;;;5037391;28;20938;-75
2023/12/02 06:53:04;;;;;;;11.60;10.40;;;-0.20;99.90;;;;;;5030627;28;20510;-76
2023/12/02 06:55:31;;;;;;;11.45;10.35;;;-0.20;99.90;;;;;;5037108;28;20540;-76
2023/12/02 06:58:00;;;;;;;10.93;9.80;;;-0.20;99.90;;;;;;5040333;28;20519;-75
2023/12/02 07:00:27;;;;;;;11.10;10.00;;;-0.20;99.60;;;;;;5038104;28;20928;-75
2023/12/02 07:02:53;;;;;;;11.65;10.45;;;-0.20;99.90;;;;;;5033880;28;20904;-75
2023/12/02 07:05:20;;;;;;;11.27;10.07;;;-0.20;99.90;;;;;;5035416;28;20415;-75
2023/12/02 07:07:47;;;;;;;11.63;10.43;;;-0.20;99.90;;;;;;5043089;28;20882;-75
2023/12/02 07:10:14;;;;;;;10.52;9.52;;;-0.20;99.90;;;;;;5036513;28;20548;-76
2023/12/02 07:12:41;;;;;;;11.35;10.25;;;-0.20;99.90;;;;;;5034721;28;20418;-77
2023/12/02 07:15:09;;;;;;;11.52;10.43;;;-0.20;99.90;;;;;;5036554;28;20525;-76
2023/12/02 07:17:36;;;;;;;12.18;10.98;;;-0.20;99.20;;;;;;5039176;28;20460;-76
2023/12/02 07:20:04;;;;;;;12.60;11.30;;;-0.20;99.70;;;;;;5035558;28;20425;-76
2023/12/02 07:22:30;;;;;;;12.40;11.20;;;-0.20;99.70;;;;;;5037985;28;20434;-74
2023/12/02 07:24:57;;;;;;;12.30;11.10;;;-0.20;99.90;;;;;;5044442;28;20416;-74
2023/12/02 07:27:24;;;;;;;11.15;10.05;;;-0.20;99.50;;;;;;5043927;28;20600;-73
2023/12/02 07:29:51;;;;;;;11.60;10.40;;;-0.20;99.40;;;;;;5035848;28;20413;-73
2023/12/02 07:32:19;;;;;;;11.37;10.17;;;-0.20;98.80;;;;;;5041477;28;20495;-73
2023/12/02 07:34:46;;;;;;;11.80;10.60;;;-0.30;99.10;;;;;;5044602;28;20580;-72
2023/12/02 07:37:12;;;;;;;12.10;10.90;;;-0.20;99.20;;;;;;5040373;28;20830;-72
2023/12/02 07:39:39;;;;;;;11.38;10.18;;;-0.20;99.40;;;;;;5042624;28;20429;-74
2023/12/02 07:42:06;;;;;;;11.68;10.48;;;-0.20;99.30;;;;;;5044146;28;20447;-73
2023/12/02 07:44:33;;;;;;;11.55;10.35;;;-0.20;99.60;;;;;;5039493;28;20434;-73
2023/12/02 07:47:00;;;;;;;11.63;10.43;;;-0.20;99.10;;;;;;5045007;28;20433;-73
2023/12/02 07:49:28;;;;;;;11.70;10.50;;;-0.30;99.10;;;;;;5035874;28;20440;-75
2023/12/02 07:51:55;;;;;;;11.25;10.15;;;-0.20;99.30;;;;;;5039213;28;20792;-75
2023/12/02 07:54:22;;;;;;;11.60;10.23;;;-0.20;99.90;;;;;;5043798;28;20424;-75
2023/12/02 07:56:48;;;;;;;11.25;10.07;;;-0.20;99.10;;;;;;5036799;28;20455;-76
2023/12/02 07:59:15;;;;;;;10.63;9.52;;;-0.20;98.80;;;;;;5040373;28;20766;-75
2023/12/02 08:01:42;;;;;;;11.40;10.20;;;-0.30;97.70;;;;;;5039990;28;20437;-75
2023/12/02 08:04:08;;;;;;;12.45;11.05;;;-0.30;98.00;;;;;;5042239;28;20893;-76
2023/12/02 08:06:37;;;;;;;10.52;9.43;;;-0.30;98.50;;;;;;5035229;28;20418;-76
2023/12/02 08:09:04;;;;;;;11.10;9.70;;;-0.30;98.30;;;;;;5036922;28;20501;-76
2023/12/02 08:11:31;;;;;;;10.90;9.75;;;-0.30;98.60;;;;;;5054344;28;20452;-74
2023/12/02 08:13:57;;;;;;;10.97;9.87;;;-0.30;98.20;;;;;;5051143;28;20499;-75
2023/12/02 08:16:24;;;;;;;10.52;9.40;;;-0.30;97.60;;;;;;5054606;28;20445;-74
2023/12/02 08:18:51;;;;;;;11.13;10.02;;;-0.30;98.00;;;;;;5060870;28;20421;-74
2023/12/02 08:21:17;;;;;;;11.35;9.85;;;-0.30;98.10;;;;;;5042904;28;20482;-74
2023/12/02 08:23:46;;;;;;;10.90;9.50;;;-0.30;97.90;;;;;;5035107;28;20486;-74
2023/12/02 08:26:12;;;;;;;10.65;9.55;;;-0.30;98.30;;;;;;5035397;28;20444;-74
2023/12/02 08:28:39;;;;;;;12.40;10.35;;;-0.20;97.90;;;;;;5043031;28;20421;-75
2023/12/02 08:31:06;;;;;;;11.57;10.38;;;-0.20;98.10;;;;;;5036647;28;20489;-73
2023/12/02 08:33:33;;;;;;;11.73;10.50;;;-0.20;98.00;;;;;;5040322;28;20409;-73
2023/12/02 08:36:00;;;;;;;12.60;10.60;;;-0.20;98.40;;;;;;5034857;28;21042;-73
2023/12/02 08:38:27;;;;;;;10.85;9.75;;;-0.20;98.50;;;;;;5040784;28;20422;-73
2023/12/02 08:40:55;;;;;;;11.25;9.77;;;-0.20;98.40;;;;;;5038991;28;20414;-73
2023/12/02 08:43:21;;;;;;;12.38;10.27;;;-0.10;98.00;;;;;;5036834;28;20426;-73
2023/12/02 08:45:48;;;;;;;11.18;10.07;;;-0.20;97.50;;;;;;5036025;28;20401;-73
2023/12/02 08:48:15;;;;;;;11.88;9.90;;;-0.10;97.80;;;;;;5039216;28;20431;-73
2023/12/02 08:50:43;;;;;;;12.40;11.10;;;-0.10;97.40;;;;;;5033547;28;20423;-73
2023/12/02 08:53:10;;;;;;;11.90;10.60;;;-0.10;97.30;;;;;;5043582;28;20489;-73
2023/12/02 08:55:36;;;;;;;11.93;10.20;;;-0.10;97.20;;;;;;5044715;28;20429;-73
2023/12/02 08:58:04;;;;;;;12.73;10.68;;;0.00;97.30;;;;;;5040374;28;20852;-73
2023/12/02 09:00:32;;;;;;;11.38;10.07;;;0.00;96.90;;;;;;5041819;28;20424;-73
2023/12/02 09:02:59;;;;;;;11.70;10.27;;;0.00;96.60;;;;;;5034413;28;20434;-73
2023/12/02 09:05:26;;;;;;;12.60;11.10;;;0.00;96.90;;;;;;5035588;28;20416;-73
2023/12/02 09:07:53;;;;;;;11.90;10.15;;;0.00;96.90;;;;;;5035294;28;20796;-73
2023/12/02 09:10:19;;;;;;;12.10;10.80;;;0.00;96.80;;;;;;5033126;28;20426;-73
2023/12/02 09:12:46;;;;;;;13.13;11.63;;;0.10;96.40;;;;;;5034823;28;20872;-73
2023/12/02 09:15:43;;;;;;;13.35;10.80;;;0.00;96.40;;;;;;5032313;28;20439;-74
2023/12/02 09:18:12;;;;;;;13.30;11.40;;;0.10;97.20;;;;;;5032572;28;20896;-74
2023/12/02 09:20:47;;;;;;;13.15;11.75;;;0.10;97.00;;;;;;5033366;28;20442;-74
2023/12/02 09:23:15;;;;;;;13.63;11.82;;;0.20;97.40;;;;;;5026485;28;20422;-74
2023/12/02 09:25:43;;;;;;;12.95;10.85;;;0.20;96.50;;;;;;5026015;28;20463;-74
2023/12/02 09:28:17;;;;;;;12.80;11.18;;;0.10;96.50;;;;;;5036720;28;20901;-76
2023/12/02 09:30:59;;;;;;;12.98;11.43;;;0.20;97.50;;;;;;5040051;28;20496;-74
2023/12/02 09:33:26;;;;;;;16.07;12.00;;;0.20;97.20;;;;;;5035901;28;20699;-73
2023/12/02 09:35:56;;;;;;;13.00;11.20;;;0.20;97.30;;;;;;5034042;28;20520;-71
2023/12/02 09:38:23;;;;;;;13.20;11.13;;;0.30;97.40;;;;;;5032522;28;20411;-70
2023/12/02 09:41:26;;;;;;;14.13;11.40;;;0.30;97.00;;;;;;5035350;28;20507;-72
2023/12/02 09:44:22;;;;;;;14.25;12.23;;;0.30;96.90;;;;;;5027931;28;20467;-73
2023/12/02 09:47:03;;;;;;;14.05;11.63;;;0.40;97.40;;;;;;5025498;28;20430;-73
2023/12/02 09:50:05;;;;;;;13.60;11.85;;;0.40;97.40;;;;;;5036235;28;20520;-75
2023/12/02 09:52:49;;;;;;;13.15;11.40;;;0.40;97.20;;;;;;5027106;28;20542;-71
2023/12/02 09:55:19;;;;;;;13.05;11.27;;;0.50;97.00;;;;;;5032209;28;20533;-72
2023/12/02 09:57:57;;;;;;;12.90;10.93;;;0.50;96.60;;;;;;5033592;28;20423;-74
2023/12/02 10:00:36;;;;;;;12.70;10.47;;;0.50;97.40;;;;;;5032830;28;20614;-69
2023/12/02 10:03:27;;;;;;;11.98;10.70;;;0.60;97.00;;;;;;5032322;28;20436;-75
2023/12/02 10:06:10;;;;;;;11.98;10.38;;;0.70;95.40;;;;;;5038532;28;20449;-76
2023/12/02 10:08:47;;;;;;;12.20;10.57;;;0.70;95.50;;;;;;5024869;28;20894;-76
2023/12/02 10:11:24;;;;;;;12.20;10.90;;;0.70;95.90;;;;;;5023951;28;20503;-76
2023/12/02 10:13:54;;;;;;;12.40;10.50;;;0.70;95.40;;;;;;5037193;28;20444;-77
2023/12/02 10:16:24;;;;;;;11.60;10.40;;;0.70;95.20;;;;;;5039106;28;20510;-76
2023/12/02 10:18:54;;;;;;;11.70;10.13;;;0.70;95.50;;;;;;5042050;28;20667;-76
2023/12/02 10:21:21;;;;;;;11.35;9.90;;;0.80;95.40;;;;;;5026823;28;20415;-75
2023/12/02 10:23:58;;;;;;;12.70;11.10;;;0.80;95.00;;;;;;5039307;28;20748;-76
2023/12/02 10:26:28;;;;;;;11.80;10.50;;;0.80;94.70;;;;;;5035751;28;20462;-76
2023/12/02 10:29:08;;;;;;;11.50;9.87;;;0.80;94.50;;;;;;5043242;28;20901;-76
2023/12/02 10:31:37;;;;;;;10.20;9.20;;;0.80;93.80;;;;;;5033268;28;21026;-76
2023/12/02 10:34:15;;;;;;;10.52;9.43;;;0.70;93.70;;;;;;5031321;28;20434;-76
2023/12/02 10:36:44;;;;;;;11.30;10.10;;;0.70;93.90;;;;;;5036355;28;20433;-76
2023/12/02 10:39:16;;;;;;;11.07;9.63;;;0.70;93.90;;;;;;5036275;28;20441;-76
2023/12/02 10:41:55;;;;;;;12.40;10.77;;;0.70;93.90;;;;;;5038052;28;20438;-76
2023/12/02 10:44:22;;;;;;;11.07;9.65;;;0.70;93.50;;;;;;5038122;28;20410;-76
2023/12/02 10:46:50;;;;;;;12.52;10.50;;;0.70;93.50;;;;;;5030535;28;20542;-76
2023/12/02 10:49:19;;;;;;;12.07;10.30;;;0.60;94.30;;;;;;5028318;28;20762;-76
2023/12/02 10:51:49;;;;;;;11.13;9.82;;;0.70;94.70;;;;;;5027298;28;20734;-76
2023/12/02 10:54:20;;;;;;;11.70;9.90;;;0.70;95.40;;;;;;5030461;28;20415;-76
2023/12/02 10:56:49;;;;;;;11.15;9.65;;;0.80;95.30;;;;;;5034010;28;20435;-76
2023/12/02 10:59:17;;;;;;;13.25;10.77;;;0.80;95.50;;;;;;5032763;28;20429;-76
2023/12/02 11:01:46;;;;;;;11.32;10.13;;;0.80;95.50;;;;;;5028681;28;20491;-76
2023/12/02 11:04:25;;;;;;;11.80;10.60;;;0.90;95.80;;;;;;5031663;28;20439;-76
2023/12/02 11:06:58;;;;;;;11.00;9.25;;;0.90;95.40;;;;;;5039732;28;20686;-77
2023/12/02 11:09:35;;;;;;;11.90;9.93;;;1.00;95.10;;;;;;5033962;28;20411;-76
2023/12/02 11:12:06;;;;;;;11.95;10.45;;;1.00;94.90;;;;;;5029951;28;20919;-76
2023/12/02 11:14:38;;;;;;;11.60;10.40;;;1.00;94.00;;;;;;5025970;28;20438;-76
2023/12/02 11:17:11;;;;;;;11.57;10.38;;;1.00;94.30;;;;;;5036468;28;20535;-76
2023/12/02 11:19:56;;;;;;;11.80;10.10;;;1.00;94.50;;;;;;5038926;28;20454;-76
2023/12/02 11:23:02;;;;;;;10.85;9.63;;;0.90;93.90;;;;;;5041254;28;20413;-76
2023/12/02 11:25:38;;;;;;;11.90;9.20;;;0.90;94.20;;;;;;4990486;28;20415;-77
2023/12/02 11:28:17;;;;;;;10.32;9.32;;;0.90;93.80;;;;;;5049849;28;20486;-76
2023/12/02 11:31:03;;;;;;;10.23;9.13;;;0.80;93.10;;;;;;5034025;28;20463;-76
2023/12/02 11:33:41;;;;;;;10.20;9.10;;;0.70;93.70;;;;;;5046610;28;20463;-76
2023/12/02 11:36:15;;;;;;;10.50;9.40;;;0.70;94.50;;;;;;5040354;28;20553;-76
2023/12/02 11:38:55;;;;;;;10.98;9.82;;;0.80;94.90;;;;;;5041224;28;20421;-76
2023/12/02 11:41:29;;;;;;;11.55;10.10;;;1.00;94.30;;;;;;5037223;28;20405;-76
2023/12/02 11:44:12;;;;;;;11.63;10.43;;;1.00;93.90;;;;;;5029102;28;20419;-76
2023/12/02 11:46:59;;;;;;;11.13;10.02;;;1.00;94.10;;;;;;5034685;28;20874;-76
2023/12/02 11:49:35;;;;;;;11.20;10.10;;;1.10;94.00;;;;;;5041415;28;20425;-76
2023/12/02 11:52:13;;;;;;;12.20;10.85;;;1.10;94.30;;;;;;5028281;28;20414;-76
2023/12/02 11:54:59;;;;;;;12.60;11.40;;;1.10;94.00;;;;;;5027545;28;20419;-76
2023/12/02 11:57:37;;;;;;;12.43;11.13;;;1.10;93.70;;;;;;5034208;28;20440;-77
2023/12/02 12:00:09;;;;;;;11.77;10.57;;;1.10;94.20;;;;;;5036881;28;20751;-76
2023/12/02 12:02:51;;;;;;;12.60;11.23;;;1.10;93.90;;;;;;5031957;28;20664;-76
2023/12/02 12:05:37;;;;;;;11.80;10.60;;;1.20;94.00;;;;;;5039829;28;20843;-75
2023/12/02 12:08:12;;;;;;;12.70;11.07;;;1.50;94.40;;;;;;5029250;28;20411;-76
2023/12/02 12:10:40;;;;;;;11.93;10.73;;;1.80;93.50;;;;;;5034910;28;20452;-76
2023/12/02 12:13:09;;;;;;;10.95;9.82;;;2.00;92.20;;;;;;5036990;28;20418;-76
2023/12/02 12:15:36;;;;;;;11.40;10.20;;;2.00;91.60;;;;;;5036500;28;20433;-76
2023/12/02 12:18:04;;;;;;;11.50;10.40;;;2.00;90.90;;;;;;5035114;28;20443;-76
2023/12/02 12:20:32;;;;;;;10.98;9.88;;;1.90;90.50;;;;;;5034582;28;20426;-76
2023/12/02 12:22:59;;;;;;;11.10;10.00;;;1.80;91.50;;;;;;5050719;22;20514;-71
2023/12/02 12:25:29;;;;;;;9.95;9.05;;;1.80;91.90;;;;;;5032284;28;20409;-69
2023/12/02 12:28:02;;;;;;;10.90;9.80;;;1.90;92.00;;;;;;5023336;28;20416;-69
2023/12/02 12:30:42;;;;;;;11.23;10.02;;;2.00;91.70;;;;;;5026733;28;20471;-70
2023/12/02 12:33:11;;;;;;;11.60;10.50;;;2.10;92.20;;;;;;5018621;28;20448;-68
2023/12/02 12:35:38;;;;;;;12.00;10.80;;;2.10;91.30;;;;;;5010986;28;20517;-68
2023/12/02 12:38:05;;;;;;;12.10;10.80;;;2.00;90.70;;;;;;5016034;28;20894;-68
2023/12/02 12:40:36;;;;;;;12.20;10.70;;;1.90;91.40;;;;;;5013716;28;20421;-67
2023/12/02 12:43:03;;;;;;;11.98;10.75;;;1.90;91.10;;;;;;5019283;28;20423;-67
2023/12/02 12:45:32;;;;;;;12.50;11.27;;;1.70;91.70;;;;;;5014484;28;20448;-67